createdAt,value
2023-04-28T00:02:13.103Z,91.90
2023-04-28T00:04:50.377Z,91.90
2023-04-28T00:07:21.264Z,91.50
2023-04-28T00:09:48.874Z,91.30
2023-04-28T00:12:17.235Z,91.30
2023-04-28T00:14:45.808Z,91.20
2023-04-28T00:17:13.818Z,91.10
2023-04-28T00:19:41.518Z,91.00
2023-04-28T00:22:09.118Z,90.80
2023-04-28T00:24:37.422Z,90.80
2023-04-28T00:27:05.881Z,90.90
2023-04-28T00:29:34.298Z,90.60
2023-04-28T00:32:02.060Z,90.30
2023-04-28T00:34:34.340Z,90.50
2023-04-28T00:37:01.976Z,90.40
2023-04-28T00:39:31.210Z,90.30
2023-04-28T00:41:59.046Z,90.40
2023-04-28T00:44:26.701Z,90.40
2023-04-28T00:46:55.268Z,90.30
2023-04-28T00:49:22.882Z,90.10
2023-04-28T00:51:52.643Z,90.00
2023-04-28T00:54:20.331Z,90.10
2023-04-28T00:56:48.297Z,89.50
2023-04-28T00:59:16.385Z,89.90
2023-04-28T01:01:44.506Z,89.70
2023-04-28T01:04:12.779Z,89.80
2023-04-28T01:06:45.039Z,89.30
2023-04-28T01:09:12.636Z,89.50
2023-04-28T01:11:40.839Z,89.70
2023-04-28T01:14:09.817Z,89.10
2023-04-28T01:16:38.827Z,88.60
2023-04-28T01:19:24.342Z,88.90
2023-04-28T01:24:22.180Z,88.00
2023-04-28T01:26:52.911Z,87.90
2023-04-28T01:29:23.516Z,87.20
2023-04-28T01:31:51.330Z,86.80
2023-04-28T01:34:19.128Z,86.40
2023-04-28T01:36:48.180Z,86.10
2023-04-28T01:39:16.619Z,85.60
2023-04-28T01:41:44.522Z,85.40
2023-04-28T01:44:13.501Z,85.20
2023-04-28T01:46:41.531Z,85.20
2023-04-28T01:49:13.954Z,84.80
2023-04-28T01:51:43.415Z,84.10
2023-04-28T01:54:11.918Z,83.90
2023-04-28T01:56:39.680Z,83.70
2023-04-28T01:59:07.317Z,83.10
2023-04-28T02:01:35.048Z,83.10
2023-04-28T02:04:03.023Z,82.80
2023-04-28T02:06:34.704Z,82.50
2023-04-28T02:11:36.257Z,81.80
2023-04-28T02:14:03.946Z,82.30
2023-04-28T02:16:32.198Z,81.40
2023-04-28T02:19:49.392Z,80.90
2023-04-28T02:21:54.001Z,80.60
2023-04-28T02:24:21.924Z,80.10
2023-04-28T02:26:49.554Z,79.80
2023-04-28T02:29:17.121Z,79.20
2023-04-28T02:31:44.842Z,78.60
2023-04-28T02:34:13.545Z,78.30
2023-04-28T02:36:48.249Z,76.50
2023-04-28T02:39:15.883Z,77.00
2023-04-28T02:41:43.494Z,74.50
2023-04-28T02:44:11.184Z,76.20
2023-04-28T02:46:38.848Z,76.60
2023-04-28T02:49:06.476Z,77.00
2023-04-28T02:51:40.815Z,76.40
2023-04-28T02:54:18.470Z,75.00
2023-04-28T02:56:59.880Z,76.10
2023-04-28T02:59:27.882Z,77.10
2023-04-28T03:01:55.792Z,74.70
2023-04-28T03:04:24.393Z,75.00
2023-04-28T03:06:55.631Z,75.20
2023-04-28T03:09:26.920Z,72.80
2023-04-28T03:11:55.916Z,73.60
2023-04-28T03:14:23.684Z,73.50
2023-04-28T03:16:51.656Z,74.60
2023-04-28T03:19:24.208Z,73.40
2023-04-28T03:22:05.532Z,74.50
2023-04-28T03:24:35.206Z,74.20
2023-04-28T03:27:07.136Z,73.40
2023-04-28T03:29:35.640Z,74.40
2023-04-28T03:32:04.484Z,73.20
2023-04-28T03:34:33.250Z,72.10
2023-04-28T03:37:02.332Z,73.20
2023-04-28T03:39:30.208Z,71.70
2023-04-28T03:42:02.177Z,72.80
2023-04-28T03:44:32.121Z,72.90
2023-04-28T03:47:02.352Z,71.70
2023-04-28T03:49:31.467Z,70.50
2023-04-28T03:52:00.623Z,70.90
2023-04-28T03:54:28.637Z,69.80
2023-04-28T03:56:56.802Z,70.60
2023-04-28T03:59:25.109Z,70.70
2023-04-28T04:01:54.894Z,68.70
2023-04-28T04:04:23.525Z,67.90
2023-04-28T04:06:53.020Z,70.00
2023-04-28T04:11:59.473Z,70.40
2023-04-28T04:14:35.870Z,70.70
2023-04-28T04:17:05.586Z,68.60
2023-04-28T04:19:37.741Z,68.40
2023-04-28T04:22:10.048Z,68.40
2023-04-28T04:24:44.287Z,68.00
2023-04-28T04:27:15.471Z,64.10
2023-04-28T04:29:44.714Z,65.40
2023-04-28T04:32:16.067Z,62.80
2023-04-28T04:34:44.144Z,65.00
2023-04-28T04:37:12.027Z,65.70
2023-04-28T04:39:40.824Z,66.40
2023-04-28T04:42:23.287Z,67.00
2023-04-28T04:44:53.548Z,60.10
2023-04-28T04:47:29.512Z,61.90
2023-04-28T04:49:57.574Z,64.40
2023-04-28T04:52:28.537Z,64.80
2023-04-28T04:54:59.521Z,64.50
2023-04-28T04:57:33.171Z,64.70
2023-04-28T05:00:01.307Z,63.50
2023-04-28T05:02:31.006Z,65.00
2023-04-28T05:05:19.641Z,65.00
2023-04-28T05:07:49.398Z,64.00
2023-04-28T05:10:23.692Z,65.30
2023-04-28T05:12:54.150Z,64.20
2023-04-28T05:15:23.292Z,63.90
2023-04-28T05:17:57.957Z,62.70
2023-04-28T05:20:26.147Z,64.90
2023-04-28T05:22:57.200Z,64.10
2023-04-28T05:25:24.794Z,64.90
2023-04-28T05:27:52.507Z,64.20
2023-04-28T05:30:20.155Z,63.80
2023-04-28T05:32:49.565Z,61.80
2023-04-28T05:35:17.909Z,56.80
2023-04-28T05:37:45.547Z,62.00
2023-04-28T05:40:13.445Z,63.10
2023-04-28T05:42:41.456Z,62.00
2023-04-28T05:45:10.680Z,62.70
2023-04-28T05:47:38.895Z,61.10
2023-04-28T05:50:07.689Z,59.60
2023-04-28T05:52:40.321Z,57.20
2023-04-28T05:55:08.770Z,58.70
2023-04-28T05:57:49.330Z,59.50
2023-04-28T06:00:23.203Z,58.80
2023-04-28T06:02:51.533Z,59.60
2023-04-28T06:05:20.598Z,58.50
2023-04-28T06:07:50.284Z,57.90
2023-04-28T06:10:24.051Z,60.50
2023-04-28T06:12:53.431Z,61.30
2023-04-28T06:15:24.437Z,59.60
2023-04-28T06:18:00.719Z,60.60
2023-04-28T06:20:32.552Z,59.10
2023-04-28T06:26:03.400Z,59.30
2023-04-28T06:28:35.551Z,60.40
2023-04-28T06:48:36.370Z,59.50
2023-04-28T06:51:04.932Z,59.90
2023-04-28T06:53:33.084Z,57.80
2023-04-28T06:56:02.190Z,61.70
2023-04-28T06:58:31.940Z,59.60
2023-04-28T07:01:07.469Z,59.80
2023-04-28T07:03:39.178Z,59.90
2023-04-28T07:06:08.842Z,61.50
2023-04-28T07:08:40.858Z,61.00
2023-04-28T07:11:09.124Z,58.30
2023-04-28T07:13:37.451Z,59.20
2023-04-28T07:16:06.471Z,58.20
2023-04-28T07:18:37.999Z,57.00
2023-04-28T07:21:09.621Z,58.30
2023-04-28T07:23:39.057Z,59.50
2023-04-28T07:26:12.639Z,59.70
2023-04-28T07:28:43.152Z,59.20
2023-04-28T07:31:14.174Z,59.00
2023-04-28T07:33:42.357Z,59.80
2023-04-28T07:36:10.311Z,59.80
2023-04-28T07:38:38.130Z,60.60
2023-04-28T07:41:10.040Z,62.20
2023-04-28T07:43:39.236Z,59.50
2023-04-28T07:46:08.866Z,61.50
2023-04-28T07:48:37.427Z,60.10
2023-04-28T07:51:09.591Z,59.80
2023-04-28T07:53:38.085Z,58.90
2023-04-28T07:56:06.526Z,58.60
2023-04-28T07:58:34.553Z,58.40
2023-04-28T08:01:03.288Z,58.20
2023-04-28T08:03:33.773Z,59.70
2023-04-28T08:06:05.471Z,61.00
2023-04-28T08:08:34.436Z,56.90
2023-04-28T08:11:03.635Z,58.40
2023-04-28T08:13:32.923Z,57.80
2023-04-28T08:16:02.853Z,61.00
2023-04-28T08:18:31.470Z,61.00
2023-04-28T08:21:02.655Z,61.10
2023-04-28T08:23:32.654Z,60.40
2023-04-28T08:26:01.112Z,60.10
2023-04-28T08:28:30.646Z,57.80
2023-04-28T08:30:59.184Z,59.10
2023-04-28T08:33:27.804Z,58.20
2023-04-28T08:36:13.285Z,57.50
2023-04-28T08:38:44.152Z,58.80
2023-04-28T08:41:18.514Z,59.20
2023-04-28T08:43:46.385Z,59.90
2023-04-28T08:46:16.172Z,60.30
2023-04-28T08:48:49.238Z,60.90
2023-04-28T08:51:25.203Z,60.10
2023-04-28T08:56:25.896Z,59.30
2023-04-28T08:58:54.736Z,58.40
2023-04-28T09:01:25.254Z,57.40
2023-04-28T09:03:55.110Z,57.50
2023-04-28T09:06:24.523Z,58.40
2023-04-28T09:08:53.022Z,57.80
2023-04-28T09:11:21.456Z,58.20
2023-04-28T09:14:04.277Z,60.00
2023-04-28T09:16:42.880Z,59.60
2023-04-28T09:19:11.317Z,59.90
2023-04-28T09:25:31.484Z,60.10
2023-04-28T10:21:20.248Z,57.40
2023-04-28T10:24:03.885Z,58.00
2023-04-28T10:26:50.196Z,58.80
2023-04-28T10:29:18.148Z,58.40
2023-04-28T10:32:04.354Z,59.50
2023-04-28T10:34:32.159Z,58.40
2023-04-28T10:37:00.644Z,58.70
2023-04-28T10:39:28.888Z,58.80
2023-04-28T10:41:57.562Z,59.50
2023-04-28T10:44:31.520Z,59.40
2023-04-28T10:47:08.026Z,59.60
2023-04-28T10:49:54.171Z,59.10
2023-04-28T10:52:35.204Z,58.50
2023-04-28T10:55:22.601Z,58.30
2023-04-28T10:58:12.220Z,58.40
2023-04-28T11:00:40.467Z,58.70
2023-04-28T11:03:08.895Z,58.60
2023-04-28T11:05:38.025Z,59.20
2023-04-28T11:08:24.235Z,59.60
2023-04-28T11:11:10.530Z,60.10
2023-04-28T11:13:40.053Z,60.40
2023-04-28T11:16:11.205Z,60.30
2023-04-28T11:18:51.315Z,61.40
2023-04-28T11:21:21.449Z,60.60
2023-04-28T11:23:49.992Z,60.20
2023-04-28T11:26:17.872Z,60.30
2023-04-28T11:28:51.430Z,60.20
2023-04-28T11:31:22.187Z,60.30
2023-04-28T11:33:52.019Z,60.60
2023-04-28T11:36:27.006Z,60.70
2023-04-28T11:38:57.396Z,60.80
2023-04-28T11:41:25.318Z,60.90
2023-04-28T11:43:53.119Z,60.90
2023-04-28T11:46:23.285Z,61.70
2023-04-28T11:49:01.026Z,61.40
2023-04-28T11:51:36.119Z,61.50
2023-04-28T11:54:04.218Z,61.70
2023-04-28T11:56:32.516Z,61.90
2023-04-28T11:59:21.511Z,62.00
2023-04-28T12:01:50.974Z,62.20
2023-04-28T12:04:42.204Z,62.40
2023-04-28T12:07:13.816Z,62.60
2023-04-28T12:09:46.646Z,62.90
2023-04-28T12:12:40.127Z,63.00
2023-04-28T12:15:14.320Z,63.10
2023-04-28T12:17:43.507Z,63.30
2023-04-28T12:20:35.922Z,63.30
2023-04-28T12:23:03.788Z,63.50
2023-04-28T12:25:32.622Z,63.60
2023-04-28T12:28:01.090Z,63.60
2023-04-28T12:30:30.174Z,63.80
2023-04-28T12:32:58.021Z,63.80
2023-04-28T12:35:26.918Z,63.90
2023-04-28T12:37:56.338Z,63.80
2023-04-28T12:40:24.716Z,63.90
2023-04-28T12:42:52.563Z,64.00
2023-04-28T12:45:20.396Z,64.10
2023-04-28T12:47:48.638Z,64.20
2023-04-28T12:50:17.108Z,64.20
2023-04-28T12:52:46.946Z,64.30
2023-04-28T12:55:15.166Z,64.30
2023-04-28T12:57:43.773Z,64.50
2023-04-28T13:00:12.895Z,64.50
2023-04-28T13:02:41.813Z,64.60
2023-04-28T13:05:09.772Z,64.70
2023-04-28T13:07:38.069Z,64.60
2023-04-28T13:10:06.443Z,64.70
2023-04-28T13:12:34.540Z,64.80
2023-04-28T13:15:03.709Z,64.90
2023-04-28T13:17:31.402Z,64.80
2023-04-28T13:20:01.620Z,65.10
2023-04-28T13:22:29.419Z,65.50
2023-04-28T13:24:57.942Z,65.60
2023-04-28T13:27:26.566Z,65.70
2023-04-28T13:29:55.104Z,65.70
2023-04-28T13:32:22.835Z,65.80
2023-04-28T13:34:51.381Z,65.90
2023-04-28T13:37:20.028Z,66.00
2023-04-28T13:39:48.049Z,66.10
2023-04-28T13:42:16.475Z,66.10
2023-04-28T13:44:45.165Z,66.20
2023-04-28T13:47:13.057Z,66.20
2023-04-28T13:49:40.771Z,66.30
2023-04-28T13:52:08.437Z,66.30
2023-04-28T13:54:37.268Z,66.40
2023-04-28T13:57:05.918Z,66.50
2023-04-28T13:59:34.479Z,66.40
2023-04-28T14:02:02.292Z,66.30
2023-04-28T14:04:31.368Z,66.00
2023-04-28T14:06:59.375Z,65.80
2023-04-28T14:09:27.919Z,66.00
2023-04-28T14:11:58.901Z,66.10
2023-04-28T14:14:26.741Z,66.20
2023-04-28T14:16:55.313Z,66.90
2023-04-28T14:19:23.414Z,66.40
2023-04-28T14:21:52.665Z,66.10
2023-04-28T14:24:20.611Z,66.30
2023-04-28T14:26:49.848Z,66.30
2023-04-28T14:29:17.680Z,66.40
2023-04-28T14:31:46.326Z,66.20
2023-04-28T14:34:14.040Z,66.40
2023-04-28T14:36:42.665Z,66.30
2023-04-28T14:39:10.346Z,66.10
2023-04-28T14:41:38.018Z,66.40
2023-04-28T14:44:06.388Z,66.50
2023-04-28T14:46:34.469Z,66.40
2023-04-28T14:49:02.866Z,66.70
2023-04-28T14:51:31.427Z,66.70
2023-04-28T14:53:59.919Z,66.70
2023-04-28T14:56:28.533Z,66.80
2023-04-28T14:58:56.147Z,66.90
2023-04-28T15:01:24.035Z,67.00
2023-04-28T15:03:52.956Z,67.00
2023-04-28T15:06:20.827Z,67.20
2023-04-28T15:08:49.323Z,67.20
2023-04-28T15:11:17.247Z,67.50
2023-04-28T15:13:44.910Z,67.30
2023-04-28T15:16:13.625Z,67.50
2023-04-28T15:18:41.335Z,67.60
2023-04-28T15:21:09.832Z,67.60
2023-04-28T15:23:37.923Z,67.80
2023-04-28T15:26:06.622Z,67.80
2023-04-28T15:28:35.498Z,67.80
2023-04-28T15:31:03.752Z,68.40
2023-04-28T15:33:32.259Z,68.30
2023-04-28T15:35:59.895Z,68.70
2023-04-28T15:38:31.844Z,68.80
2023-04-28T15:40:59.575Z,68.70
2023-04-28T15:43:27.509Z,68.60
2023-04-28T15:45:55.597Z,68.60
2023-04-28T15:48:24.495Z,68.80
2023-04-28T15:50:52.131Z,69.20
2023-04-28T15:53:19.927Z,69.10
2023-04-28T15:55:47.939Z,69.10
2023-04-28T15:58:16.414Z,69.10
2023-04-28T16:00:46.149Z,69.20
2023-04-28T16:03:14.026Z,69.30
2023-04-28T16:05:42.728Z,69.40
2023-04-28T16:08:11.482Z,69.70
2023-04-28T16:10:41.650Z,70.00
2023-04-28T16:13:11.810Z,70.10
2023-04-28T16:15:40.297Z,70.00
2023-04-28T16:18:08.071Z,70.30
2023-04-28T16:20:35.953Z,70.10
2023-04-28T16:23:03.637Z,70.50
2023-04-28T16:25:31.662Z,70.80
2023-04-28T16:27:59.314Z,70.80
2023-04-28T16:30:26.998Z,71.20
2023-04-28T16:32:55.092Z,71.40
2023-04-28T16:35:23.060Z,71.90
2023-04-28T16:37:50.928Z,71.00
2023-04-28T16:40:19.004Z,72.30
2023-04-28T16:42:47.003Z,71.40
2023-04-28T16:45:15.923Z,71.50
2023-04-28T16:47:44.770Z,72.00
2023-04-28T16:50:15.043Z,72.40
2023-04-28T16:52:42.774Z,71.70
2023-04-28T16:55:11.136Z,71.30
2023-04-28T16:57:38.809Z,72.10
2023-04-28T17:00:06.823Z,72.10
2023-04-28T17:02:34.946Z,71.70
2023-04-28T17:05:03.671Z,71.80
2023-04-28T17:07:31.480Z,71.70
2023-04-28T17:09:59.820Z,71.50
2023-04-28T17:12:27.503Z,71.20
2023-04-28T17:14:55.133Z,72.00
2023-04-28T17:17:22.746Z,73.30
2023-04-28T17:19:50.602Z,73.00
2023-04-28T17:22:18.505Z,72.50
2023-04-28T17:24:47.011Z,71.80
2023-04-28T17:27:14.986Z,72.00
2023-04-28T17:29:43.144Z,72.10
2023-04-28T17:32:12.069Z,72.80
2023-04-28T17:34:39.706Z,72.40
2023-04-28T17:37:07.270Z,72.80
2023-04-28T17:39:35.670Z,72.70
2023-04-28T17:42:04.198Z,73.10
2023-04-28T17:44:32.031Z,73.30
2023-04-28T17:47:01.642Z,73.00
2023-04-28T17:49:29.471Z,73.10
2023-04-28T17:51:57.022Z,73.30
2023-04-28T17:54:24.720Z,72.80
2023-04-28T17:56:55.650Z,73.10
2023-04-28T17:59:23.158Z,72.70
2023-04-28T18:01:50.793Z,72.70
2023-04-28T18:04:18.502Z,73.50
2023-04-28T18:06:46.416Z,73.60
2023-04-28T18:09:14.600Z,73.70
2023-04-28T18:11:42.974Z,73.80
2023-04-28T18:14:10.493Z,74.40
2023-04-28T18:16:38.095Z,74.50
2023-04-28T18:19:06.124Z,74.30
2023-04-28T18:21:34.423Z,73.90
2023-04-28T18:24:02.093Z,74.20
2023-04-28T18:26:29.693Z,74.20
2023-04-28T18:28:57.246Z,74.10
2023-04-28T18:31:25.644Z,75.00
2023-04-28T18:33:53.855Z,75.70
2023-04-28T18:36:21.383Z,75.20
2023-04-28T18:38:49.177Z,75.60
2023-04-28T18:41:18.479Z,75.40
2023-04-28T18:43:46.880Z,75.60
2023-04-28T18:46:14.922Z,74.50
2023-04-28T18:48:44.388Z,74.90
2023-04-28T18:51:11.953Z,74.70
2023-04-28T18:53:39.733Z,74.50
2023-04-28T18:56:08.056Z,74.90
2023-04-28T18:58:37.438Z,74.80
2023-04-28T19:01:05.088Z,75.00
2023-04-28T19:03:32.907Z,75.20
2023-04-28T19:06:01.507Z,75.50
2023-04-28T19:08:29.061Z,76.00
2023-04-28T19:10:59.517Z,76.10
2023-04-28T19:13:27.934Z,74.80
2023-04-28T19:15:56.448Z,75.20
2023-04-28T19:18:24.100Z,75.60
2023-04-28T19:21:00.299Z,74.60
2023-04-28T19:23:29.320Z,74.90
2023-04-28T19:25:58.077Z,74.40
2023-04-28T19:28:29.259Z,75.10
2023-04-28T19:30:58.390Z,74.80
2023-04-28T19:33:28.277Z,75.30
2023-04-28T19:35:56.293Z,75.60
2023-04-28T19:38:23.958Z,75.90
2023-04-28T19:40:58.835Z,77.30
2023-04-28T19:43:27.303Z,77.50
2023-04-28T19:45:55.836Z,77.30
2023-04-28T19:48:23.511Z,77.80
2023-04-28T19:50:51.756Z,77.20
2023-04-28T19:53:22.889Z,77.60
2023-04-28T19:55:51.412Z,78.00
2023-04-28T19:58:19.079Z,77.60
2023-04-28T20:00:48.930Z,77.70
2023-04-28T20:03:17.597Z,77.00
2023-04-28T20:05:45.421Z,77.90
2023-04-28T20:08:13.903Z,78.20
2023-04-28T20:10:41.589Z,78.00
2023-04-28T20:13:09.112Z,78.20
2023-04-28T20:15:36.727Z,78.30
2023-04-28T20:18:04.504Z,79.00
2023-04-28T20:20:32.875Z,79.40
2023-04-28T20:23:01.173Z,78.40
2023-04-28T20:25:28.782Z,78.20
2023-04-28T20:27:57.316Z,78.90
2023-04-28T20:30:24.890Z,78.80
2023-04-28T20:32:52.512Z,79.00
2023-04-28T20:35:20.770Z,79.30
2023-04-28T20:37:48.487Z,78.80
2023-04-28T20:40:16.885Z,79.00
2023-04-28T20:42:44.445Z,79.30
2023-04-28T20:45:12.083Z,78.40
2023-04-28T20:47:39.985Z,78.80
2023-04-28T20:50:12.834Z,79.10
2023-04-28T20:52:40.480Z,79.10
2023-04-28T20:55:09.743Z,80.10
2023-04-28T20:57:38.085Z,80.10
2023-04-28T21:00:08.005Z,80.00
2023-04-28T21:02:37.253Z,79.40
2023-04-28T21:05:04.952Z,79.60
2023-04-28T21:07:32.767Z,79.30
2023-04-28T21:10:00.366Z,79.50
2023-04-28T21:12:29.272Z,79.50
2023-04-28T21:14:58.259Z,77.50
2023-04-28T21:17:26.661Z,78.00
2023-04-28T21:19:57.731Z,79.00
2023-04-28T21:22:25.342Z,79.40
2023-04-28T21:24:55.586Z,78.70
2023-04-28T21:27:24.056Z,79.20
2023-04-28T21:29:52.883Z,78.50
2023-04-28T21:32:21.448Z,79.30
2023-04-28T21:34:49.736Z,80.10
2023-04-28T21:37:17.526Z,80.60
2023-04-28T21:39:45.892Z,80.30
2023-04-28T21:42:14.361Z,80.40
2023-04-28T21:44:42.004Z,79.80
2023-04-28T21:47:09.711Z,80.10
2023-04-28T21:49:38.549Z,79.60
2023-04-28T21:52:06.481Z,79.50
2023-04-28T21:54:34.092Z,80.20
2023-04-28T21:57:03.006Z,80.80
2023-04-28T21:59:30.870Z,80.00
2023-04-28T22:02:00.654Z,80.10
2023-04-28T22:04:28.406Z,80.50
2023-04-28T22:06:56.386Z,80.80
2023-04-28T22:09:24.410Z,81.10
2023-04-28T22:11:52.490Z,80.80
2023-04-28T22:14:38.851Z,80.50
2023-04-28T22:17:07.748Z,80.80
2023-04-28T22:19:35.316Z,79.70
2023-04-28T22:22:03.034Z,80.40
2023-04-28T22:24:30.635Z,79.40
2023-04-28T22:26:59.229Z,79.30
2023-04-28T22:29:26.804Z,79.70
2023-04-28T22:31:54.942Z,79.90
2023-04-28T22:34:23.875Z,80.10
2023-04-28T22:36:51.705Z,80.70
2023-04-28T22:39:19.312Z,80.10
2023-04-28T22:41:47.961Z,80.40
2023-04-28T22:44:15.656Z,81.50
2023-04-28T22:46:43.342Z,81.40
2023-04-28T22:49:11.000Z,81.90
2023-04-28T22:51:38.560Z,81.80
2023-04-28T22:54:06.981Z,81.70
2023-04-28T22:56:35.480Z,81.70
2023-04-28T22:59:03.927Z,80.50
2023-04-28T23:01:32.946Z,79.80
2023-04-28T23:04:00.813Z,80.00
2023-04-28T23:06:32.242Z,80.10
2023-04-28T23:08:59.810Z,81.00
2023-04-28T23:11:27.709Z,81.90
2023-04-28T23:13:55.561Z,82.70
2023-04-28T23:16:23.429Z,83.60
2023-04-28T23:18:51.049Z,83.10
2023-04-28T23:21:18.989Z,82.50
2023-04-28T23:23:46.580Z,83.00
2023-04-28T23:26:14.230Z,82.40
2023-04-28T23:28:42.713Z,81.90
2023-04-28T23:31:10.798Z,82.30
2023-04-28T23:33:38.391Z,82.80
2023-04-28T23:36:06.203Z,83.00
2023-04-28T23:38:33.890Z,82.70
2023-04-28T23:41:01.504Z,83.70
2023-04-28T23:43:29.285Z,82.70
2023-04-28T23:45:59.271Z,81.90
2023-04-28T23:48:28.009Z,81.90
2023-04-28T23:50:55.864Z,81.70
2023-04-28T23:53:23.645Z,82.10
2023-04-28T23:55:51.212Z,82.10
2023-04-28T23:58:19.187Z,81.20
